Pond Gap, West Virginia
Current Conditions -  °F | °C
As of 10:54 AM on Saturday 20 Dec 2014 (Local Time) from KCRW Reporting Station
Overcast Overcast  
Wind Chill: 31°   Ceiling: 8000
Heat Index: 31°   Visibility: 10mi
Dew Point: 23°   Wind: 0mph
Humidity: 72%   Direction: NA
Pressure: 30.26"   Gusts: NA
Location:  38.28°N, 81.28°W
Report Text: KCRW 201554Z 00000KT 10SM BKN080 OVC100 M01/M05 A3026 RMK AO2 SLP254 OCNL BINOVC T10061050
Loading
Personal Weather Stations






























Interactive Weather Map New forecast layout! Learn more

10-Day Weather Forecast

Advertisements
Track Severe Weather on mobile